sensor_id;sensor_type;location;lat;lon;timestamp;P1;durP1;ratioP1;P2;durP2;ratioP2
36315;SDS011;22343;50.820;2.666;2022-08-19T00:00:05;22.25;;;16.38;;
36315;SDS011;22343;50.820;2.666;2022-08-19T00:02:33;22.92;;;16.75;;
36315;SDS011;22343;50.820;2.666;2022-08-19T00:04:59;20.00;;;16.42;;
36315;SDS011;22343;50.820;2.666;2022-08-19T00:07:24;21.35;;;16.60;;
36315;SDS011;22343;50.820;2.666;2022-08-19T00:09:50;20.63;;;17.45;;
36315;SDS011;22343;50.820;2.666;2022-08-19T00:12:15;22.67;;;16.40;;
36315;SDS011;22343;50.820;2.666;2022-08-19T00:14:40;19.73;;;15.98;;
36315;SDS011;22343;50.820;2.666;2022-08-19T00:17:06;22.27;;;15.82;;
36315;SDS011;22343;50.820;2.666;2022-08-19T00:19:33;21.35;;;15.57;;
36315;SDS011;22343;50.820;2.666;2022-08-19T00:21:58;20.45;;;14.88;;
36315;SDS011;22343;50.820;2.666;2022-08-19T00:24:24;21.60;;;14.82;;
36315;SDS011;22343;50.820;2.666;2022-08-19T00:26:50;20.60;;;14.57;;
36315;SDS011;22343;50.820;2.666;2022-08-19T00:29:17;18.90;;;14.00;;
36315;SDS011;22343;50.820;2.666;2022-08-19T00:31:44;18.25;;;13.55;;
36315;SDS011;22343;50.820;2.666;2022-08-19T00:34:10;20.02;;;13.30;;
36315;SDS011;22343;50.820;2.666;2022-08-19T00:36:37;21.50;;;13.15;;
36315;SDS011;22343;50.820;2.666;2022-08-19T00:39:03;18.27;;;12.68;;
36315;SDS011;22343;50.820;2.666;2022-08-19T00:41:29;16.75;;;12.05;;
36315;SDS011;22343;50.820;2.666;2022-08-19T00:44:03;17.88;;;11.35;;
36315;SDS011;22343;50.820;2.666;2022-08-19T00:46:29;16.45;;;11.30;;
36315;SDS011;22343;50.820;2.666;2022-08-19T00:48:56;15.73;;;11.43;;
36315;SDS011;22343;50.820;2.666;2022-08-19T00:51:22;15.77;;;11.85;;
36315;SDS011;22343;50.820;2.666;2022-08-19T00:53:51;15.75;;;11.68;;
36315;SDS011;22343;50.820;2.666;2022-08-19T00:56:17;16.17;;;11.95;;
36315;SDS011;22343;50.820;2.666;2022-08-19T00:58:43;16.40;;;12.40;;
36315;SDS011;22343;50.820;2.666;2022-08-19T01:01:09;18.58;;;11.43;;
36315;SDS011;22343;50.820;2.666;2022-08-19T01:03:34;15.60;;;11.80;;
36315;SDS011;22343;50.820;2.666;2022-08-19T01:05:59;19.60;;;11.48;;
36315;SDS011;22343;50.820;2.666;2022-08-19T01:08:25;14.60;;;11.52;;
36315;SDS011;22343;50.820;2.666;2022-08-19T01:10:52;18.73;;;11.88;;
36315;SDS011;22343;50.820;2.666;2022-08-19T01:13:19;15.48;;;11.88;;
36315;SDS011;22343;50.820;2.666;2022-08-19T01:15:49;17.95;;;12.43;;
36315;SDS011;22343;50.820;2.666;2022-08-19T01:18:17;16.77;;;11.63;;
36315;SDS011;22343;50.820;2.666;2022-08-19T01:20:44;16.98;;;11.65;;
36315;SDS011;22343;50.820;2.666;2022-08-19T01:23:10;17.73;;;11.95;;
36315;SDS011;22343;50.820;2.666;2022-08-19T01:25:39;16.80;;;11.02;;
36315;SDS011;22343;50.820;2.666;2022-08-19T01:28:08;16.30;;;12.00;;
36315;SDS011;22343;50.820;2.666;2022-08-19T01:30:51;18.08;;;12.40;;
36315;SDS011;22343;50.820;2.666;2022-08-19T01:33:16;14.60;;;11.07;;
36315;SDS011;22343;50.820;2.666;2022-08-19T01:35:42;16.65;;;11.85;;
36315;SDS011;22343;50.820;2.666;2022-08-19T01:38:08;13.70;;;10.77;;
36315;SDS011;22343;50.820;2.666;2022-08-19T01:40:37;18.38;;;11.07;;
36315;SDS011;22343;50.820;2.666;2022-08-19T01:43:04;14.52;;;10.30;;
36315;SDS011;22343;50.820;2.666;2022-08-19T01:45:31;13.52;;;10.18;;
36315;SDS011;22343;50.820;2.666;2022-08-19T01:47:57;15.23;;;10.23;;
36315;SDS011;22343;50.820;2.666;2022-08-19T01:50:24;13.70;;;10.15;;
36315;SDS011;22343;50.820;2.666;2022-08-19T01:52:49;16.90;;;10.30;;
36315;SDS011;22343;50.820;2.666;2022-08-19T01:55:16;16.52;;;10.32;;
36315;SDS011;22343;50.820;2.666;2022-08-19T01:57:48;13.48;;;9.60;;
36315;SDS011;22343;50.820;2.666;2022-08-19T02:00:16;14.25;;;9.55;;
36315;SDS011;22343;50.820;2.666;2022-08-19T02:02:43;16.50;;;10.40;;
36315;SDS011;22343;50.820;2.666;2022-08-19T02:05:08;14.50;;;9.85;;
36315;SDS011;22343;50.820;2.666;2022-08-19T02:07:35;13.93;;;9.77;;
36315;SDS011;22343;50.820;2.666;2022-08-19T02:10:05;13.50;;;9.15;;
36315;SDS011;22343;50.820;2.666;2022-08-19T02:12:33;16.05;;;9.52;;
36315;SDS011;22343;50.820;2.666;2022-08-19T02:14:59;15.07;;;9.35;;
36315;SDS011;22343;50.820;2.666;2022-08-19T02:17:24;11.70;;;9.00;;
36315;SDS011;22343;50.820;2.666;2022-08-19T02:19:50;12.70;;;8.65;;
36315;SDS011;22343;50.820;2.666;2022-08-19T02:22:15;12.98;;;8.50;;
36315;SDS011;22343;50.820;2.666;2022-08-19T02:24:40;12.48;;;8.50;;
36315;SDS011;22343;50.820;2.666;2022-08-19T02:27:06;13.52;;;8.20;;
36315;SDS011;22343;50.820;2.666;2022-08-19T02:29:31;10.68;;;8.65;;
36315;SDS011;22343;50.820;2.666;2022-08-19T02:31:57;13.00;;;8.18;;
36315;SDS011;22343;50.820;2.666;2022-08-19T02:34:23;14.27;;;8.63;;
36315;SDS011;22343;50.820;2.666;2022-08-19T02:36:50;11.68;;;8.40;;
36315;SDS011;22343;50.820;2.666;2022-08-19T02:39:16;14.82;;;7.90;;
36315;SDS011;22343;50.820;2.666;2022-08-19T02:41:42;10.30;;;8.13;;
36315;SDS011;22343;50.820;2.666;2022-08-19T02:44:07;11.85;;;8.30;;
36315;SDS011;22343;50.820;2.666;2022-08-19T02:46:32;14.05;;;7.90;;
36315;SDS011;22343;50.820;2.666;2022-08-19T02:49:03;13.30;;;8.45;;
36315;SDS011;22343;50.820;2.666;2022-08-19T02:51:31;14.63;;;8.40;;
36315;SDS011;22343;50.820;2.666;2022-08-19T02:53:58;14.80;;;8.60;;
36315;SDS011;22343;50.820;2.666;2022-08-19T02:56:24;12.95;;;8.48;;
36315;SDS011;22343;50.820;2.666;2022-08-19T02:58:51;16.75;;;9.02;;
36315;SDS011;22343;50.820;2.666;2022-08-19T03:01:21;15.05;;;8.80;;
36315;SDS011;22343;50.820;2.666;2022-08-19T03:03:51;16.05;;;8.80;;
36315;SDS011;22343;50.820;2.666;2022-08-19T03:06:17;17.45;;;9.10;;
36315;SDS011;22343;50.820;2.666;2022-08-19T03:08:44;15.60;;;9.82;;
36315;SDS011;22343;50.820;2.666;2022-08-19T03:11:15;15.43;;;10.18;;
36315;SDS011;22343;50.820;2.666;2022-08-19T03:13:43;15.48;;;9.48;;
36315;SDS011;22343;50.820;2.666;2022-08-19T03:16:09;17.77;;;10.25;;
36315;SDS011;22343;50.820;2.666;2022-08-19T03:18:35;15.13;;;9.85;;
36315;SDS011;22343;50.820;2.666;2022-08-19T03:21:01;15.02;;;9.77;;
36315;SDS011;22343;50.820;2.666;2022-08-19T03:23:26;15.38;;;10.07;;
36315;SDS011;22343;50.820;2.666;2022-08-19T03:25:52;17.08;;;10.00;;
36315;SDS011;22343;50.820;2.666;2022-08-19T03:28:18;18.52;;;9.60;;
36315;SDS011;22343;50.820;2.666;2022-08-19T03:30:54;17.83;;;10.00;;
36315;SDS011;22343;50.820;2.666;2022-08-19T03:33:25;17.77;;;10.10;;
36315;SDS011;22343;50.820;2.666;2022-08-19T03:38:30;20.20;;;10.75;;
36315;SDS011;22343;50.820;2.666;2022-08-19T03:40:57;19.63;;;10.70;;
36315;SDS011;22343;50.820;2.666;2022-08-19T03:43:22;23.55;;;11.52;;
36315;SDS011;22343;50.820;2.666;2022-08-19T03:45:47;20.95;;;11.45;;
36315;SDS011;22343;50.820;2.666;2022-08-19T03:48:13;18.40;;;11.50;;
36315;SDS011;22343;50.820;2.666;2022-08-19T03:50:41;20.30;;;12.95;;
36315;SDS011;22343;50.820;2.666;2022-08-19T03:53:07;17.27;;;12.20;;
36315;SDS011;22343;50.820;2.666;2022-08-19T03:55:33;18.35;;;12.00;;
36315;SDS011;22343;50.820;2.666;2022-08-19T03:58:03;18.67;;;12.77;;
36315;SDS011;22343;50.820;2.666;2022-08-19T04:00:28;19.23;;;12.70;;
36315;SDS011;22343;50.820;2.666;2022-08-19T04:02:54;18.98;;;12.32;;
36315;SDS011;22343;50.820;2.666;2022-08-19T04:05:19;19.77;;;12.68;;
36315;SDS011;22343;50.820;2.666;2022-08-19T04:07:45;17.73;;;12.18;;
36315;SDS011;22343;50.820;2.666;2022-08-19T04:10:10;17.25;;;12.45;;
36315;SDS011;22343;50.820;2.666;2022-08-19T04:12:36;18.70;;;12.52;;
36315;SDS011;22343;50.820;2.666;2022-08-19T04:15:02;20.63;;;13.65;;
36315;SDS011;22343;50.820;2.666;2022-08-19T04:17:29;24.83;;;13.45;;
36315;SDS011;22343;50.820;2.666;2022-08-19T04:19:54;20.13;;;12.80;;
36315;SDS011;22343;50.820;2.666;2022-08-19T04:22:21;21.25;;;13.13;;
36315;SDS011;22343;50.820;2.666;2022-08-19T04:24:46;18.38;;;12.98;;
36315;SDS011;22343;50.820;2.666;2022-08-19T04:27:13;18.10;;;12.88;;
36315;SDS011;22343;50.820;2.666;2022-08-19T04:29:39;18.60;;;12.90;;
36315;SDS011;22343;50.820;2.666;2022-08-19T04:32:06;18.65;;;12.85;;
36315;SDS011;22343;50.820;2.666;2022-08-19T04:34:32;18.52;;;13.07;;
36315;SDS011;22343;50.820;2.666;2022-08-19T04:36:59;20.83;;;13.23;;
36315;SDS011;22343;50.820;2.666;2022-08-19T04:39:27;20.70;;;13.63;;
36315;SDS011;22343;50.820;2.666;2022-08-19T04:42:13;21.08;;;13.48;;
36315;SDS011;22343;50.820;2.666;2022-08-19T04:44:58;22.80;;;14.35;;
36315;SDS011;22343;50.820;2.666;2022-08-19T04:47:24;20.17;;;14.10;;
36315;SDS011;22343;50.820;2.666;2022-08-19T04:49:51;21.67;;;14.20;;
36315;SDS011;22343;50.820;2.666;2022-08-19T04:52:16;20.90;;;14.50;;
36315;SDS011;22343;50.820;2.666;2022-08-19T04:54:42;24.40;;;14.45;;
36315;SDS011;22343;50.820;2.666;2022-08-19T04:57:07;19.05;;;13.70;;
36315;SDS011;22343;50.820;2.666;2022-08-19T04:59:35;20.17;;;14.15;;
36315;SDS011;22343;50.820;2.666;2022-08-19T05:02:01;20.42;;;13.43;;
36315;SDS011;22343;50.820;2.666;2022-08-19T05:04:27;19.80;;;13.68;;
36315;SDS011;22343;50.820;2.666;2022-08-19T05:06:56;19.20;;;13.45;;
36315;SDS011;22343;50.820;2.666;2022-08-19T05:09:22;18.58;;;13.27;;
36315;SDS011;22343;50.820;2.666;2022-08-19T05:11:47;19.23;;;12.88;;
36315;SDS011;22343;50.820;2.666;2022-08-19T05:14:12;18.48;;;13.25;;
36315;SDS011;22343;50.820;2.666;2022-08-19T05:16:38;19.05;;;12.73;;
36315;SDS011;22343;50.820;2.666;2022-08-19T05:19:04;17.23;;;12.38;;
36315;SDS011;22343;50.820;2.666;2022-08-19T05:21:48;18.50;;;13.00;;
36315;SDS011;22343;50.820;2.666;2022-08-19T05:24:32;19.08;;;12.77;;
36315;SDS011;22343;50.820;2.666;2022-08-19T05:27:00;16.77;;;12.55;;
36315;SDS011;22343;50.820;2.666;2022-08-19T05:29:27;16.05;;;12.18;;
36315;SDS011;22343;50.820;2.666;2022-08-19T05:31:54;18.23;;;11.57;;
36315;SDS011;22343;50.820;2.666;2022-08-19T05:34:20;15.90;;;11.00;;
36315;SDS011;22343;50.820;2.666;2022-08-19T05:36:48;13.50;;;10.82;;
36315;SDS011;22343;50.820;2.666;2022-08-19T05:39:17;15.68;;;10.52;;
36315;SDS011;22343;50.820;2.666;2022-08-19T05:41:45;15.05;;;10.77;;
36315;SDS011;22343;50.820;2.666;2022-08-19T05:44:13;17.55;;;10.52;;
36315;SDS011;22343;50.820;2.666;2022-08-19T05:46:39;14.23;;;9.45;;
36315;SDS011;22343;50.820;2.666;2022-08-19T05:49:05;15.25;;;9.40;;
36315;SDS011;22343;50.820;2.666;2022-08-19T05:51:31;16.98;;;9.45;;
36315;SDS011;22343;50.820;2.666;2022-08-19T05:53:59;13.85;;;9.63;;
36315;SDS011;22343;50.820;2.666;2022-08-19T05:56:24;11.93;;;8.77;;
36315;SDS011;22343;50.820;2.666;2022-08-19T05:58:50;12.77;;;9.07;;
36315;SDS011;22343;50.820;2.666;2022-08-19T06:01:16;11.75;;;8.23;;
36315;SDS011;22343;50.820;2.666;2022-08-19T06:03:43;15.20;;;8.55;;
36315;SDS011;22343;50.820;2.666;2022-08-19T06:06:09;12.40;;;8.38;;
36315;SDS011;22343;50.820;2.666;2022-08-19T06:08:36;13.77;;;8.02;;
36315;SDS011;22343;50.820;2.666;2022-08-19T06:11:20;12.30;;;8.05;;
36315;SDS011;22343;50.820;2.666;2022-08-19T06:13:49;13.27;;;7.45;;
36315;SDS011;22343;50.820;2.666;2022-08-19T06:16:18;12.98;;;7.85;;
36315;SDS011;22343;50.820;2.666;2022-08-19T06:18:45;11.95;;;7.55;;
36315;SDS011;22343;50.820;2.666;2022-08-19T06:21:11;11.13;;;7.40;;
36315;SDS011;22343;50.820;2.666;2022-08-19T06:23:36;12.32;;;7.63;;
36315;SDS011;22343;50.820;2.666;2022-08-19T06:26:02;11.52;;;7.93;;
36315;SDS011;22343;50.820;2.666;2022-08-19T06:28:27;10.50;;;7.60;;
36315;SDS011;22343;50.820;2.666;2022-08-19T06:30:52;12.73;;;8.93;;
36315;SDS011;22343;50.820;2.666;2022-08-19T06:33:18;14.38;;;8.60;;
36315;SDS011;22343;50.820;2.666;2022-08-19T06:35:43;14.27;;;8.73;;
36315;SDS011;22343;50.820;2.666;2022-08-19T06:38:08;12.60;;;8.35;;
36315;SDS011;22343;50.820;2.666;2022-08-19T06:40:34;14.95;;;8.82;;
36315;SDS011;22343;50.820;2.666;2022-08-19T06:43:00;13.13;;;8.77;;
36315;SDS011;22343;50.820;2.666;2022-08-19T06:45:27;11.93;;;8.65;;
36315;SDS011;22343;50.820;2.666;2022-08-19T06:47:52;10.20;;;8.10;;
36315;SDS011;22343;50.820;2.666;2022-08-19T06:50:20;10.23;;;8.30;;
36315;SDS011;22343;50.820;2.666;2022-08-19T06:52:49;12.40;;;8.00;;
36315;SDS011;22343;50.820;2.666;2022-08-19T06:55:15;13.50;;;8.32;;
36315;SDS011;22343;50.820;2.666;2022-08-19T06:57:40;13.60;;;8.65;;
36315;SDS011;22343;50.820;2.666;2022-08-19T07:00:07;11.38;;;8.70;;
36315;SDS011;22343;50.820;2.666;2022-08-19T07:02:41;12.70;;;8.32;;
36315;SDS011;22343;50.820;2.666;2022-08-19T07:05:07;11.60;;;7.88;;
36315;SDS011;22343;50.820;2.666;2022-08-19T07:07:32;10.18;;;8.07;;
36315;SDS011;22343;50.820;2.666;2022-08-19T07:09:58;10.85;;;8.00;;
36315;SDS011;22343;50.820;2.666;2022-08-19T07:12:24;9.15;;;7.95;;
36315;SDS011;22343;50.820;2.666;2022-08-19T07:14:49;9.65;;;7.15;;
36315;SDS011;22343;50.820;2.666;2022-08-19T07:17:15;9.65;;;6.72;;
36315;SDS011;22343;50.820;2.666;2022-08-19T07:19:40;7.85;;;6.47;;
36315;SDS011;22343;50.820;2.666;2022-08-19T07:22:07;7.53;;;6.60;;
36315;SDS011;22343;50.820;2.666;2022-08-19T07:24:33;8.63;;;6.03;;
36315;SDS011;22343;50.820;2.666;2022-08-19T07:27:00;7.20;;;6.20;;
36315;SDS011;22343;50.820;2.666;2022-08-19T07:29:27;9.30;;;4.78;;
36315;SDS011;22343;50.820;2.666;2022-08-19T07:31:54;6.95;;;4.43;;
36315;SDS011;22343;50.820;2.666;2022-08-19T07:34:23;6.07;;;4.03;;
36315;SDS011;22343;50.820;2.666;2022-08-19T07:36:49;5.50;;;4.10;;
36315;SDS011;22343;50.820;2.666;2022-08-19T07:39:20;7.63;;;4.70;;
36315;SDS011;22343;50.820;2.666;2022-08-19T07:41:50;4.75;;;4.10;;
36315;SDS011;22343;50.820;2.666;2022-08-19T07:44:16;5.28;;;4.68;;
36315;SDS011;22343;50.820;2.666;2022-08-19T07:46:44;7.38;;;5.90;;
36315;SDS011;22343;50.820;2.666;2022-08-19T07:49:12;6.40;;;5.70;;
36315;SDS011;22343;50.820;2.666;2022-08-19T07:51:44;6.63;;;5.88;;
36315;SDS011;22343;50.820;2.666;2022-08-19T07:54:30;7.15;;;5.13;;
36315;SDS011;22343;50.820;2.666;2022-08-19T07:56:59;5.70;;;4.57;;
36315;SDS011;22343;50.820;2.666;2022-08-19T07:59:24;5.10;;;4.60;;
36315;SDS011;22343;50.820;2.666;2022-08-19T08:01:50;4.65;;;4.18;;
36315;SDS011;22343;50.820;2.666;2022-08-19T08:04:16;5.00;;;4.10;;
36315;SDS011;22343;50.820;2.666;2022-08-19T08:07:01;5.13;;;3.70;;
36315;SDS011;22343;50.820;2.666;2022-08-19T08:09:45;3.95;;;3.55;;
36315;SDS011;22343;50.820;2.666;2022-08-19T08:12:12;5.40;;;4.10;;
36315;SDS011;22343;50.820;2.666;2022-08-19T08:14:43;4.25;;;3.80;;
36315;SDS011;22343;50.820;2.666;2022-08-19T08:17:11;4.13;;;3.40;;
36315;SDS011;22343;50.820;2.666;2022-08-19T08:19:39;4.03;;;3.00;;
36315;SDS011;22343;50.820;2.666;2022-08-19T08:22:09;3.42;;;2.80;;
36315;SDS011;22343;50.820;2.666;2022-08-19T08:24:55;2.80;;;2.50;;
36315;SDS011;22343;50.820;2.666;2022-08-19T08:27:23;3.38;;;2.85;;
36315;SDS011;22343;50.820;2.666;2022-08-19T08:29:48;4.55;;;3.67;;
36315;SDS011;22343;50.820;2.666;2022-08-19T08:32:14;5.07;;;4.40;;
36315;SDS011;22343;50.820;2.666;2022-08-19T08:34:39;3.63;;;3.33;;
36315;SDS011;22343;50.820;2.666;2022-08-19T08:37:04;3.47;;;3.17;;
36315;SDS011;22343;50.820;2.666;2022-08-19T08:39:30;3.95;;;3.13;;
36315;SDS011;22343;50.820;2.666;2022-08-19T08:42:11;3.67;;;3.10;;
36315;SDS011;22343;50.820;2.666;2022-08-19T08:44:48;4.95;;;3.38;;
36315;SDS011;22343;50.820;2.666;2022-08-19T08:47:32;4.95;;;3.33;;
36315;SDS011;22343;50.820;2.666;2022-08-19T08:50:16;5.20;;;3.58;;
36315;SDS011;22343;50.820;2.666;2022-08-19T08:52:45;5.10;;;3.50;;
36315;SDS011;22343;50.820;2.666;2022-08-19T08:55:13;3.45;;;3.15;;
36315;SDS011;22343;50.820;2.666;2022-08-19T09:00:15;3.97;;;3.08;;
36315;SDS011;22343;50.820;2.666;2022-08-19T09:02:44;3.40;;;3.10;;
36315;SDS011;22343;50.820;2.666;2022-08-19T09:05:10;3.40;;;3.10;;
36315;SDS011;22343;50.820;2.666;2022-08-19T09:10:28;3.40;;;2.70;;
36315;SDS011;22343;50.820;2.666;2022-08-19T09:13:01;2.25;;;2.05;;
36315;SDS011;22343;50.820;2.666;2022-08-19T09:15:47;2.42;;;2.10;;
36315;SDS011;22343;50.820;2.666;2022-08-19T09:18:16;4.32;;;2.65;;
36315;SDS011;22343;50.820;2.666;2022-08-19T09:20:41;3.50;;;2.65;;
36315;SDS011;22343;50.820;2.666;2022-08-19T09:23:07;3.22;;;2.92;;
36315;SDS011;22343;50.820;2.666;2022-08-19T09:25:33;3.65;;;2.92;;
36315;SDS011;22343;50.820;2.666;2022-08-19T09:27:59;2.80;;;2.60;;
36315;SDS011;22343;50.820;2.666;2022-08-19T09:30:29;3.58;;;2.42;;
36315;SDS011;22343;50.820;2.666;2022-08-19T09:32:56;3.20;;;2.25;;
36315;SDS011;22343;50.820;2.666;2022-08-19T09:35:22;3.63;;;3.10;;
36315;SDS011;22343;50.820;2.666;2022-08-19T09:37:49;4.30;;;3.10;;
36315;SDS011;22343;50.820;2.666;2022-08-19T09:40:15;4.35;;;3.42;;
36315;SDS011;22343;50.820;2.666;2022-08-19T09:42:42;4.07;;;3.30;;
36315;SDS011;22343;50.820;2.666;2022-08-19T09:45:09;3.28;;;2.90;;
36315;SDS011;22343;50.820;2.666;2022-08-19T09:47:35;4.10;;;3.20;;
36315;SDS011;22343;50.820;2.666;2022-08-19T09:50:03;4.65;;;3.03;;
36315;SDS011;22343;50.820;2.666;2022-08-19T09:52:30;4.82;;;3.20;;
36315;SDS011;22343;50.820;2.666;2022-08-19T09:54:56;4.95;;;2.97;;
36315;SDS011;22343;50.820;2.666;2022-08-19T09:57:21;4.50;;;3.35;;
36315;SDS011;22343;50.820;2.666;2022-08-19T09:59:47;4.13;;;3.03;;
36315;SDS011;22343;50.820;2.666;2022-08-19T10:02:12;5.88;;;3.15;;
36315;SDS011;22343;50.820;2.666;2022-08-19T10:04:39;5.47;;;3.10;;
36315;SDS011;22343;50.820;2.666;2022-08-19T10:07:23;5.75;;;3.30;;
36315;SDS011;22343;50.820;2.666;2022-08-19T10:09:49;4.82;;;3.47;;
36315;SDS011;22343;50.820;2.666;2022-08-19T10:12:14;6.65;;;3.80;;
36315;SDS011;22343;50.820;2.666;2022-08-19T10:14:40;6.13;;;3.90;;
36315;SDS011;22343;50.820;2.666;2022-08-19T10:17:06;4.88;;;3.83;;
36315;SDS011;22343;50.820;2.666;2022-08-19T10:19:31;6.03;;;3.72;;
36315;SDS011;22343;50.820;2.666;2022-08-19T10:22:02;6.18;;;3.70;;
36315;SDS011;22343;50.820;2.666;2022-08-19T10:24:29;6.68;;;3.90;;
36315;SDS011;22343;50.820;2.666;2022-08-19T10:26:55;7.78;;;4.00;;
36315;SDS011;22343;50.820;2.666;2022-08-19T10:29:21;4.25;;;3.30;;
36315;SDS011;22343;50.820;2.666;2022-08-19T10:31:46;4.65;;;3.20;;
36315;SDS011;22343;50.820;2.666;2022-08-19T10:34:12;5.07;;;2.90;;
36315;SDS011;22343;50.820;2.666;2022-08-19T10:36:37;4.80;;;3.25;;
36315;SDS011;22343;50.820;2.666;2022-08-19T10:39:05;4.07;;;3.10;;
36315;SDS011;22343;50.820;2.666;2022-08-19T10:41:34;4.63;;;3.00;;
36315;SDS011;22343;50.820;2.666;2022-08-19T10:44:03;4.53;;;3.05;;
36315;SDS011;22343;50.820;2.666;2022-08-19T10:46:30;4.35;;;3.20;;
36315;SDS011;22343;50.820;2.666;2022-08-19T10:48:57;4.72;;;3.28;;
36315;SDS011;22343;50.820;2.666;2022-08-19T10:51:24;4.40;;;2.88;;
36315;SDS011;22343;50.820;2.666;2022-08-19T10:54:08;4.88;;;2.88;;
36315;SDS011;22343;50.820;2.666;2022-08-19T10:56:33;5.93;;;2.83;;
36315;SDS011;22343;50.820;2.666;2022-08-19T10:59:21;8.10;;;2.97;;
36315;SDS011;22343;50.820;2.666;2022-08-19T11:01:48;5.15;;;2.50;;
36315;SDS011;22343;50.820;2.666;2022-08-19T11:04:15;4.45;;;2.78;;
36315;SDS011;22343;50.820;2.666;2022-08-19T11:06:42;6.03;;;2.97;;
36315;SDS011;22343;50.820;2.666;2022-08-19T11:09:10;4.35;;;2.90;;
36315;SDS011;22343;50.820;2.666;2022-08-19T11:11:36;8.70;;;3.80;;
36315;SDS011;22343;50.820;2.666;2022-08-19T11:14:05;5.70;;;3.67;;
36315;SDS011;22343;50.820;2.666;2022-08-19T11:16:36;5.18;;;3.60;;
36315;SDS011;22343;50.820;2.666;2022-08-19T11:19:03;5.82;;;3.78;;
36315;SDS011;22343;50.820;2.666;2022-08-19T11:21:33;5.07;;;3.45;;
36315;SDS011;22343;50.820;2.666;2022-08-19T11:24:06;6.13;;;3.80;;
36315;SDS011;22343;50.820;2.666;2022-08-19T11:26:34;6.20;;;3.33;;
36315;SDS011;22343;50.820;2.666;2022-08-19T11:29:00;4.13;;;3.20;;
36315;SDS011;22343;50.820;2.666;2022-08-19T11:31:27;5.72;;;3.55;;
36315;SDS011;22343;50.820;2.666;2022-08-19T11:33:59;5.25;;;3.22;;
36315;SDS011;22343;50.820;2.666;2022-08-19T11:36:28;5.43;;;3.40;;
36315;SDS011;22343;50.820;2.666;2022-08-19T11:38:53;7.47;;;3.45;;
36315;SDS011;22343;50.820;2.666;2022-08-19T11:41:20;7.32;;;3.38;;
36315;SDS011;22343;50.820;2.666;2022-08-19T11:43:47;5.80;;;3.03;;
36315;SDS011;22343;50.820;2.666;2022-08-19T11:46:14;6.28;;;2.80;;
36315;SDS011;22343;50.820;2.666;2022-08-19T11:48:40;5.32;;;2.60;;
36315;SDS011;22343;50.820;2.666;2022-08-19T11:51:08;5.28;;;2.55;;
36315;SDS011;22343;50.820;2.666;2022-08-19T11:53:35;3.38;;;2.22;;
36315;SDS011;22343;50.820;2.666;2022-08-19T11:56:02;4.85;;;2.63;;
36315;SDS011;22343;50.820;2.666;2022-08-19T11:58:28;5.13;;;2.42;;
36315;SDS011;22343;50.820;2.666;2022-08-19T12:00:55;4.38;;;2.15;;
36315;SDS011;22343;50.820;2.666;2022-08-19T12:03:20;4.13;;;2.17;;
36315;SDS011;22343;50.820;2.666;2022-08-19T12:05:46;2.92;;;2.38;;
36315;SDS011;22343;50.820;2.666;2022-08-19T12:08:12;4.00;;;2.10;;
36315;SDS011;22343;50.820;2.666;2022-08-19T12:10:38;3.92;;;2.15;;
36315;SDS011;22343;50.820;2.666;2022-08-19T12:13:04;3.50;;;2.17;;
36315;SDS011;22343;50.820;2.666;2022-08-19T12:15:34;4.03;;;2.20;;
36315;SDS011;22343;50.820;2.666;2022-08-19T12:18:05;4.78;;;2.33;;
36315;SDS011;22343;50.820;2.666;2022-08-19T12:20:33;3.92;;;2.10;;
36315;SDS011;22343;50.820;2.666;2022-08-19T12:22:59;6.65;;;2.35;;
36315;SDS011;22343;50.820;2.666;2022-08-19T12:25:25;3.83;;;2.30;;
36315;SDS011;22343;50.820;2.666;2022-08-19T12:27:50;3.33;;;2.30;;
36315;SDS011;22343;50.820;2.666;2022-08-19T12:30:16;3.38;;;2.50;;
36315;SDS011;22343;50.820;2.666;2022-08-19T12:32:42;5.43;;;2.50;;
36315;SDS011;22343;50.820;2.666;2022-08-19T12:35:07;3.00;;;2.40;;
36315;SDS011;22343;50.820;2.666;2022-08-19T12:37:36;4.70;;;2.38;;
36315;SDS011;22343;50.820;2.666;2022-08-19T12:40:02;3.20;;;2.42;;
36315;SDS011;22343;50.820;2.666;2022-08-19T12:42:28;4.32;;;2.60;;
36315;SDS011;22343;50.820;2.666;2022-08-19T12:44:55;5.13;;;2.50;;
36315;SDS011;22343;50.820;2.666;2022-08-19T12:47:20;3.35;;;2.13;;
36315;SDS011;22343;50.820;2.666;2022-08-19T12:49:46;3.03;;;1.92;;
36315;SDS011;22343;50.820;2.666;2022-08-19T12:52:12;2.70;;;2.00;;
36315;SDS011;22343;50.820;2.666;2022-08-19T12:54:40;2.53;;;1.83;;
36315;SDS011;22343;50.820;2.666;2022-08-19T12:57:07;2.33;;;1.90;;
36315;SDS011;22343;50.820;2.666;2022-08-19T12:59:34;3.20;;;2.10;;
36315;SDS011;22343;50.820;2.666;2022-08-19T13:02:01;2.65;;;1.90;;
36315;SDS011;22343;50.820;2.666;2022-08-19T13:04:29;2.63;;;2.00;;
36315;SDS011;22343;50.820;2.666;2022-08-19T13:06:54;2.35;;;1.75;;
36315;SDS011;22343;50.820;2.666;2022-08-19T13:09:20;3.63;;;2.10;;
36315;SDS011;22343;50.820;2.666;2022-08-19T13:11:45;4.35;;;2.65;;
36315;SDS011;22343;50.820;2.666;2022-08-19T13:14:10;87.63;;;13.93;;
36315;SDS011;22343;50.820;2.666;2022-08-19T13:16:36;28.65;;;6.00;;
36315;SDS011;22343;50.820;2.666;2022-08-19T13:19:02;6.20;;;3.45;;
36315;SDS011;22343;50.820;2.666;2022-08-19T13:21:30;7.82;;;3.40;;
36315;SDS011;22343;50.820;2.666;2022-08-19T13:23:56;6.30;;;3.00;;
36315;SDS011;22343;50.820;2.666;2022-08-19T13:26:21;3.92;;;2.60;;
36315;SDS011;22343;50.820;2.666;2022-08-19T13:28:47;4.15;;;2.22;;
36315;SDS011;22343;50.820;2.666;2022-08-19T13:31:32;4.20;;;2.50;;
36315;SDS011;22343;50.820;2.666;2022-08-19T13:34:18;5.32;;;3.30;;
36315;SDS011;22343;50.820;2.666;2022-08-19T13:36:45;5.32;;;3.15;;
36315;SDS011;22343;50.820;2.666;2022-08-19T13:39:11;6.60;;;2.70;;
36315;SDS011;22343;50.820;2.666;2022-08-19T13:41:37;3.15;;;2.17;;
36315;SDS011;22343;50.820;2.666;2022-08-19T13:44:08;208.25;;;17.58;;
36315;SDS011;22343;50.820;2.666;2022-08-19T13:46:34;5.35;;;2.40;;
36315;SDS011;22343;50.820;2.666;2022-08-19T13:48:59;3.38;;;2.33;;
36315;SDS011;22343;50.820;2.666;2022-08-19T13:51:24;5.00;;;2.40;;
36315;SDS011;22343;50.820;2.666;2022-08-19T13:53:50;4.70;;;2.40;;
36315;SDS011;22343;50.820;2.666;2022-08-19T13:56:17;3.25;;;2.30;;
36315;SDS011;22343;50.820;2.666;2022-08-19T13:58:44;3.90;;;2.20;;
36315;SDS011;22343;50.820;2.666;2022-08-19T14:01:10;3.22;;;2.40;;
36315;SDS011;22343;50.820;2.666;2022-08-19T14:03:36;3.08;;;2.30;;
36315;SDS011;22343;50.820;2.666;2022-08-19T14:06:01;5.00;;;2.50;;
36315;SDS011;22343;50.820;2.666;2022-08-19T14:08:27;2.55;;;2.10;;
36315;SDS011;22343;50.820;2.666;2022-08-19T14:10:53;3.53;;;2.10;;
36315;SDS011;22343;50.820;2.666;2022-08-19T14:13:20;3.13;;;2.30;;
36315;SDS011;22343;50.820;2.666;2022-08-19T14:15:47;2.75;;;1.77;;
36315;SDS011;22343;50.820;2.666;2022-08-19T14:18:13;3.60;;;2.25;;
36315;SDS011;22343;50.820;2.666;2022-08-19T14:20:39;2.83;;;2.30;;
36315;SDS011;22343;50.820;2.666;2022-08-19T14:23:05;2.45;;;1.90;;
36315;SDS011;22343;50.820;2.666;2022-08-19T14:25:30;2.78;;;2.10;;
36315;SDS011;22343;50.820;2.666;2022-08-19T14:27:56;2.63;;;2.22;;
36315;SDS011;22343;50.820;2.666;2022-08-19T14:30:24;2.47;;;1.75;;
36315;SDS011;22343;50.820;2.666;2022-08-19T14:32:52;4.95;;;2.08;;
36315;SDS011;22343;50.820;2.666;2022-08-19T14:35:19;2.95;;;2.20;;
36315;SDS011;22343;50.820;2.666;2022-08-19T14:37:46;3.72;;;1.90;;
36315;SDS011;22343;50.820;2.666;2022-08-19T14:40:15;4.97;;;1.80;;
36315;SDS011;22343;50.820;2.666;2022-08-19T14:42:42;6.07;;;2.05;;
36315;SDS011;22343;50.820;2.666;2022-08-19T14:45:08;3.58;;;2.30;;
36315;SDS011;22343;50.820;2.666;2022-08-19T14:47:35;2.35;;;2.15;;